createdAt,value
2022-12-14T00:00:42.656Z,-3.48
2022-12-14T00:03:08.741Z,-3.53
2022-12-14T00:05:34.795Z,-3.48
2022-12-14T00:08:01.343Z,-3.46
2022-12-14T00:10:27.377Z,-3.48
2022-12-14T00:12:53.330Z,-3.56
2022-12-14T00:15:19.167Z,-3.48
2022-12-14T00:17:44.974Z,-3.58
2022-12-14T00:20:10.949Z,-3.63
2022-12-14T00:22:36.651Z,-3.59
2022-12-14T00:25:03.305Z,-3.62
2022-12-14T00:27:29.019Z,-3.70
2022-12-14T00:29:55.330Z,-3.77
2022-12-14T00:32:21.101Z,-3.81
2022-12-14T00:34:46.891Z,-3.75
2022-12-14T00:37:12.640Z,-3.86
2022-12-14T00:39:38.390Z,-3.90
2022-12-14T00:42:04.158Z,-3.90
2022-12-14T00:44:30.617Z,-3.82
2022-12-14T00:46:56.387Z,-3.82
2022-12-14T00:49:22.237Z,-3.90
2022-12-14T00:51:48.066Z,-3.94
2022-12-14T00:54:13.845Z,-3.99
2022-12-14T00:56:39.667Z,-3.80
2022-12-14T00:59:05.456Z,-3.92
2022-12-14T01:01:31.309Z,-3.99
2022-12-14T01:04:16.103Z,-4.03
2022-12-14T01:06:43.604Z,-3.95
2022-12-14T01:09:09.955Z,-3.84
2022-12-14T01:11:35.876Z,-3.85
2022-12-14T01:14:01.719Z,-3.82
2022-12-14T01:16:27.683Z,-3.82
2022-12-14T01:18:53.476Z,-3.76
2022-12-14T01:21:21.524Z,-3.73
2022-12-14T01:23:52.147Z,-3.65
2022-12-14T01:26:18.657Z,-3.76
2022-12-14T01:28:45.621Z,-3.56
2022-12-14T01:31:13.968Z,-3.66
2022-12-14T01:33:39.765Z,-3.69
2022-12-14T01:36:08.725Z,-3.50
2022-12-14T01:38:34.961Z,-3.66
2022-12-14T01:41:01.188Z,-3.65
2022-12-14T01:43:49.636Z,-3.69
2022-12-14T01:46:22.974Z,-3.67
2022-12-14T01:48:52.410Z,-3.69
2022-12-14T01:51:18.356Z,-3.58
2022-12-14T01:53:46.210Z,-3.52
2022-12-14T01:56:12.357Z,-3.67
2022-12-14T01:58:38.189Z,-3.65
2022-12-14T02:01:03.989Z,-3.69
2022-12-14T02:03:36.715Z,-3.61
2022-12-14T02:06:17.064Z,-3.58
2022-12-14T02:08:44.972Z,-3.68
2022-12-14T02:11:10.835Z,-3.69
2022-12-14T02:13:41.752Z,-3.74
2022-12-14T02:16:08.125Z,-3.66
2022-12-14T02:18:34.144Z,-3.70
2022-12-14T02:21:33.497Z,-3.65
2022-12-14T02:24:23.958Z,-3.71
2022-12-14T02:27:03.667Z,-3.68
2022-12-14T02:29:41.671Z,-3.42
2022-12-14T02:32:42.722Z,-3.59
2022-12-14T02:35:25.967Z,-3.61
2022-12-14T02:38:10.940Z,-3.67
2022-12-14T02:40:41.022Z,-3.63
2022-12-14T02:43:29.098Z,-3.63
2022-12-14T02:46:08.892Z,-3.63
2022-12-14T02:49:12.986Z,-3.58
2022-12-14T02:51:48.909Z,-3.65
2022-12-14T02:54:28.934Z,-3.63
2022-12-14T02:57:10.891Z,-3.65
2022-12-14T02:59:36.744Z,-3.63
2022-12-14T03:02:04.008Z,-3.58
2022-12-14T03:04:30.094Z,-3.56
2022-12-14T03:07:01.905Z,-3.54
2022-12-14T03:09:29.825Z,-3.53
2022-12-14T03:12:01.502Z,-3.45
2022-12-14T03:14:35.298Z,-3.34
2022-12-14T03:17:10.320Z,-3.27
2022-12-14T03:19:47.278Z,-3.44
2022-12-14T03:22:53.827Z,-3.30
2022-12-14T03:25:32.778Z,-3.27
2022-12-14T03:28:12.260Z,-3.29
2022-12-14T03:30:59.977Z,-3.29
2022-12-14T03:33:30.852Z,-3.40
2022-12-14T03:36:12.767Z,-3.31
2022-12-14T03:38:44.378Z,-3.23
2022-12-14T03:41:18.033Z,-3.29
2022-12-14T03:44:05.680Z,-3.34
2022-12-14T03:46:54.028Z,-3.36
2022-12-14T03:49:23.819Z,-3.23
2022-12-14T03:51:49.575Z,-3.25
2022-12-14T03:54:26.790Z,-3.35
2022-12-14T03:56:59.046Z,-3.20
2022-12-14T03:59:32.671Z,-3.25
2022-12-14T04:02:09.410Z,-3.25
2022-12-14T04:05:02.933Z,-3.14
2022-12-14T04:08:02.154Z,-3.12
2022-12-14T04:11:00.211Z,-3.18
2022-12-14T04:13:51.866Z,-3.12
2022-12-14T04:16:40.457Z,-3.15
2022-12-14T04:19:13.962Z,-3.15
2022-12-14T04:21:45.407Z,-3.09
2022-12-14T04:24:49.264Z,-3.03
2022-12-14T04:27:25.847Z,-3.07
2022-12-14T04:29:56.171Z,-3.11
2022-12-14T04:32:34.931Z,-3.11
2022-12-14T04:35:19.607Z,-3.10
2022-12-14T04:37:51.616Z,-3.02
2022-12-14T04:40:32.275Z,-3.11
2022-12-14T04:43:07.125Z,-3.09
2022-12-14T04:45:38.928Z,-3.12
2022-12-14T04:48:26.394Z,-3.28
2022-12-14T04:51:00.325Z,-3.13
2022-12-14T04:53:30.306Z,-3.26
2022-12-14T04:55:59.250Z,-3.18
2022-12-14T04:58:27.505Z,-3.21
2022-12-14T05:01:27.292Z,-3.16
2022-12-14T05:04:15.800Z,-3.27
2022-12-14T05:06:44.670Z,-3.11
2022-12-14T05:09:24.454Z,-3.22
2022-12-14T05:12:04.191Z,-3.14
2022-12-14T05:14:45.466Z,-3.09
2022-12-14T05:17:11.941Z,-3.10
2022-12-14T05:19:48.649Z,-3.05
2022-12-14T05:22:15.721Z,-3.06
2022-12-14T05:24:41.478Z,-3.01
2022-12-14T05:27:07.288Z,-3.03
2022-12-14T05:29:33.486Z,-3.03
2022-12-14T05:32:00.363Z,-3.07
2022-12-14T05:34:26.160Z,-3.02
2022-12-14T05:36:51.995Z,-3.17
2022-12-14T05:39:17.915Z,-3.13
2022-12-14T05:41:44.199Z,-3.07
2022-12-14T05:44:10.311Z,-3.05
2022-12-14T05:46:36.690Z,-3.10
2022-12-14T05:49:02.824Z,-3.09
2022-12-14T05:51:28.600Z,-3.03
2022-12-14T05:53:54.374Z,-3.05
2022-12-14T05:56:20.364Z,-2.93
2022-12-14T05:58:49.644Z,-3.12
2022-12-14T06:01:19.364Z,-3.16
2022-12-14T06:03:45.916Z,-3.09
2022-12-14T06:06:12.877Z,-3.10
2022-12-14T06:08:42.783Z,-3.15
2022-12-14T06:11:14.258Z,-3.08
2022-12-14T06:13:40.807Z,-3.15
2022-12-14T06:16:18.744Z,-2.99
2022-12-14T06:18:47.494Z,-3.08
2022-12-14T06:21:15.255Z,-3.20
2022-12-14T06:23:41.422Z,-3.11
2022-12-14T06:26:08.773Z,-3.16
2022-12-14T06:28:35.467Z,-3.05
2022-12-14T06:31:02.188Z,-3.13
2022-12-14T06:33:28.869Z,-3.10
2022-12-14T06:35:54.964Z,-3.16
2022-12-14T06:38:21.156Z,-3.11
2022-12-14T06:40:47.105Z,-3.10
2022-12-14T06:43:13.300Z,-3.29
2022-12-14T06:45:39.155Z,-3.10
2022-12-14T06:48:05.193Z,-3.12
2022-12-14T06:50:31.103Z,-2.94
2022-12-14T06:52:57.071Z,-2.98
2022-12-14T06:55:24.563Z,-3.25
2022-12-14T06:57:51.079Z,-3.14
2022-12-14T07:00:21.214Z,-3.06
2022-12-14T07:02:47.696Z,-3.20
2022-12-14T07:05:14.436Z,-3.21
2022-12-14T07:07:41.188Z,-3.24
2022-12-14T07:10:09.099Z,-3.21
2022-12-14T07:12:35.604Z,-3.19
2022-12-14T07:15:01.872Z,-3.15
2022-12-14T07:17:27.694Z,-3.02
2022-12-14T07:19:53.548Z,-3.11
2022-12-14T07:22:19.700Z,-3.04
2022-12-14T07:24:45.535Z,-3.04
2022-12-14T07:27:11.631Z,-3.12
2022-12-14T07:29:37.508Z,-3.02
2022-12-14T07:32:03.709Z,-3.11
2022-12-14T07:34:29.595Z,-3.00
2022-12-14T07:36:57.065Z,-3.10
2022-12-14T07:39:22.963Z,-3.15
2022-12-14T07:41:49.855Z,-3.22
2022-12-14T07:44:16.464Z,-3.29
2022-12-14T07:46:42.662Z,-3.05
2022-12-14T07:49:08.713Z,-3.10
2022-12-14T07:51:41.244Z,-3.06
2022-12-14T07:54:07.725Z,-3.14
2022-12-14T07:56:37.648Z,-3.19
2022-12-14T07:59:06.072Z,-3.08
2022-12-14T08:01:34.643Z,-3.16
2022-12-14T08:04:06.195Z,-3.17
2022-12-14T08:06:32.410Z,-3.06
2022-12-14T08:08:58.789Z,-3.16
2022-12-14T08:11:25.128Z,-3.30
2022-12-14T08:13:54.760Z,-3.12
2022-12-14T08:16:20.986Z,-3.33
2022-12-14T08:18:46.876Z,-3.34
2022-12-14T08:21:14.714Z,-3.33
2022-12-14T08:23:40.875Z,-3.19
2022-12-14T08:26:07.486Z,-3.42
2022-12-14T08:28:35.315Z,-3.52
2022-12-14T08:31:07.114Z,-3.41
2022-12-14T08:33:34.413Z,-3.23
2022-12-14T08:36:06.485Z,-3.13
2022-12-14T08:38:32.279Z,-3.21
2022-12-14T08:41:02.907Z,-3.24
2022-12-14T08:43:29.095Z,-3.10
2022-12-14T08:45:55.149Z,-3.07
2022-12-14T08:48:20.963Z,-3.01
2022-12-14T08:50:46.946Z,-2.86
2022-12-14T08:53:16.053Z,-2.85
2022-12-14T08:55:42.254Z,-3.06
2022-12-14T08:58:08.048Z,-3.01
2022-12-14T09:00:34.028Z,-3.05
2022-12-14T09:03:00.018Z,-2.98
2022-12-14T09:05:26.057Z,-2.75
2022-12-14T09:07:52.016Z,-2.98
2022-12-14T09:10:17.845Z,-3.09
2022-12-14T09:12:43.750Z,-2.90
2022-12-14T09:15:11.131Z,-2.79
2022-12-14T09:17:37.014Z,-2.78
2022-12-14T09:20:05.102Z,-2.76
2022-12-14T09:22:31.049Z,-2.86
2022-12-14T09:24:56.946Z,-3.02
2022-12-14T09:27:23.039Z,-2.89
2022-12-14T09:29:49.404Z,-2.87
2022-12-14T09:32:15.638Z,-2.98
2022-12-14T09:34:41.823Z,-2.97
2022-12-14T09:37:07.693Z,-3.21
2022-12-14T09:39:35.143Z,-3.05
2022-12-14T09:42:39.296Z,-3.13
2022-12-14T09:45:21.245Z,-3.10
2022-12-14T09:48:12.762Z,-3.08
2022-12-14T09:50:39.645Z,-3.24
2022-12-14T09:53:07.657Z,-3.00
2022-12-14T09:55:46.884Z,-3.03
2022-12-14T09:58:19.457Z,-2.94
2022-12-14T10:01:06.144Z,-2.92
2022-12-14T10:03:59.451Z,-2.81
2022-12-14T10:06:37.391Z,-2.87
2022-12-14T10:09:35.720Z,-2.90
2022-12-14T10:12:20.513Z,-2.99
2022-12-14T10:15:23.748Z,-2.89
2022-12-14T10:18:17.579Z,-2.94
2022-12-14T10:21:13.338Z,-2.98
2022-12-14T10:23:52.086Z,-3.30
2022-12-14T10:26:20.918Z,-3.17
2022-12-14T10:29:05.797Z,-3.07
2022-12-14T10:31:39.903Z,-3.00
2022-12-14T10:34:29.233Z,-2.97
2022-12-14T10:37:11.749Z,-2.98
2022-12-14T10:40:07.633Z,-2.83
2022-12-14T10:42:54.984Z,-2.81
2022-12-14T10:45:46.311Z,-2.80
2022-12-14T10:48:24.532Z,-2.83
2022-12-14T10:50:59.386Z,-2.79
2022-12-14T10:53:37.121Z,-2.82
2022-12-14T10:56:12.753Z,-2.97
2022-12-14T10:58:38.676Z,-2.94
2022-12-14T11:01:04.814Z,-2.81
2022-12-14T11:03:31.444Z,-2.79
2022-12-14T11:06:06.973Z,-2.57
2022-12-14T11:08:48.799Z,-2.55
2022-12-14T11:11:19.522Z,-2.57
2022-12-14T11:13:53.878Z,-2.41
2022-12-14T11:16:37.805Z,-2.31
2022-12-14T11:19:13.999Z,-2.56
2022-12-14T11:21:40.003Z,-2.43
2022-12-14T11:24:06.803Z,-2.42
2022-12-14T11:26:39.364Z,-2.34
2022-12-14T11:29:29.854Z,-2.24
2022-12-14T11:31:55.918Z,-2.35
2022-12-14T11:34:42.572Z,-2.36
2022-12-14T11:37:21.126Z,-2.38
2022-12-14T11:39:51.471Z,-2.37
2022-12-14T11:42:19.712Z,-2.27
2022-12-14T11:44:48.126Z,-2.35
2022-12-14T11:47:25.787Z,-2.46
2022-12-14T11:49:57.089Z,-2.78
2022-12-14T11:52:40.836Z,-2.65
2022-12-14T11:55:13.936Z,-2.64
2022-12-14T11:57:51.125Z,-2.71
2022-12-14T12:00:19.619Z,-2.54
2022-12-14T12:02:59.079Z,-2.60
2022-12-14T12:05:26.350Z,-2.55
2022-12-14T12:07:56.059Z,-2.39
2022-12-14T12:10:38.704Z,-2.42
2022-12-14T12:13:09.417Z,-2.35
2022-12-14T12:15:42.462Z,-2.23
2022-12-14T12:18:31.870Z,-2.18
2022-12-14T12:21:07.812Z,-2.12
2022-12-14T12:23:42.814Z,-2.15
2022-12-14T12:26:24.792Z,-2.18
2022-12-14T12:28:58.672Z,-2.16
2022-12-14T12:31:32.668Z,-2.34
2022-12-14T12:34:09.668Z,-2.34
2022-12-14T12:36:37.154Z,-2.40
2022-12-14T12:39:14.864Z,-2.34
2022-12-14T12:42:26.025Z,-2.14
2022-12-14T12:45:15.070Z,-2.14
2022-12-14T12:47:47.526Z,-2.14
2022-12-14T12:50:17.150Z,-2.40
2022-12-14T12:53:00.925Z,-2.25
2022-12-14T12:55:33.731Z,-2.29
2022-12-14T12:58:02.543Z,-2.33
2022-12-14T13:00:29.928Z,-2.23
2022-12-14T13:03:12.834Z,-2.06
2022-12-14T13:05:49.061Z,-2.17
2022-12-14T13:08:25.251Z,-2.02
2022-12-14T13:13:46.326Z,-1.83
2022-12-14T13:16:38.292Z,-1.83
2022-12-14T13:19:52.716Z,-2.01
2022-12-14T13:22:32.803Z,-2.04
2022-12-14T13:25:10.912Z,-1.95
2022-12-14T13:28:10.965Z,-1.99
2022-12-14T13:31:30.620Z,-1.93
2022-12-14T13:34:03.320Z,-1.90
2022-12-14T13:37:04.058Z,-1.80
2022-12-14T13:39:56.912Z,-1.84
2022-12-14T13:42:44.243Z,-1.95
2022-12-14T13:45:19.876Z,-1.93
2022-12-14T13:47:50.734Z,-1.81
2022-12-14T13:50:39.162Z,-1.80
2022-12-14T13:53:11.370Z,-1.77
2022-12-14T13:55:45.975Z,-1.76
2022-12-14T13:58:38.091Z,-1.70
2022-12-14T14:01:25.232Z,-1.77
2022-12-14T14:03:53.715Z,-1.74
2022-12-14T14:06:22.626Z,-1.68
2022-12-14T14:08:51.265Z,-1.68
2022-12-14T14:11:39.151Z,-1.67
2022-12-14T14:14:34.768Z,-1.70
2022-12-14T14:17:11.251Z,-1.61
2022-12-14T14:19:40.343Z,-1.72
2022-12-14T14:22:25.687Z,-1.80
2022-12-14T14:24:56.908Z,-1.90
2022-12-14T14:27:31.857Z,-1.90
2022-12-14T14:29:57.727Z,-1.95
2022-12-14T14:32:41.710Z,-1.97
2022-12-14T14:35:37.631Z,-2.05
2022-12-14T14:38:21.733Z,-2.18
2022-12-14T14:41:15.307Z,-2.12
2022-12-14T14:43:46.172Z,-2.32
2022-12-14T14:46:22.415Z,-2.13
2022-12-14T14:48:54.265Z,-2.18
2022-12-14T14:51:24.419Z,-2.22
2022-12-14T14:55:06.517Z,-2.44
2022-12-14T14:57:54.040Z,-2.57
2022-12-14T15:00:20.080Z,-2.76
2022-12-14T15:02:46.189Z,-2.72
2022-12-14T15:05:42.730Z,-2.81
2022-12-14T15:08:19.837Z,-2.88
2022-12-14T15:10:47.116Z,-2.85
2022-12-14T15:13:22.247Z,-2.84
2022-12-14T15:15:51.077Z,-2.84
2022-12-14T15:18:32.049Z,-2.78
2022-12-14T15:21:11.486Z,-2.72
2022-12-14T15:23:41.614Z,-2.89
2022-12-14T15:26:24.555Z,-3.07
2022-12-14T15:28:55.866Z,-3.28
2022-12-14T15:31:34.301Z,-3.20
2022-12-14T15:34:02.284Z,-3.02
2022-12-14T15:36:32.901Z,-3.02
2022-12-14T15:38:58.950Z,-2.82
2022-12-14T15:41:31.595Z,-2.64
2022-12-14T15:44:00.270Z,-3.09
2022-12-14T15:46:33.247Z,-2.92
2022-12-14T15:57:15.758Z,-2.97
2022-12-14T15:59:44.216Z,-3.00
2022-12-14T16:02:17.769Z,-3.01
2022-12-14T16:04:45.368Z,-3.01
2022-12-14T16:07:25.006Z,-2.98
2022-12-14T16:09:59.708Z,-2.93
2022-12-14T16:12:47.395Z,-3.00
2022-12-14T16:15:27.628Z,-2.87
2022-12-14T16:18:02.118Z,-2.80
2022-12-14T16:20:31.159Z,-2.90
2022-12-14T16:23:24.346Z,-3.03
2022-12-14T16:25:55.276Z,-3.02
2022-12-14T16:28:33.836Z,-2.97
2022-12-14T16:31:16.964Z,-2.93
2022-12-14T16:33:43.101Z,-2.94
2022-12-14T16:36:23.687Z,-2.91
2022-12-14T16:38:57.204Z,-2.82
2022-12-14T16:41:43.544Z,-2.82
2022-12-14T16:44:20.205Z,-2.74
2022-12-14T16:47:04.069Z,-2.80
2022-12-14T16:49:35.575Z,-2.88
2022-12-14T16:52:13.750Z,-2.88
2022-12-14T16:54:39.884Z,-2.85
2022-12-14T16:57:16.410Z,-2.83
2022-12-14T16:59:44.822Z,-2.83
2022-12-14T17:02:27.860Z,-3.02
2022-12-14T17:04:55.317Z,-2.94
2022-12-14T17:07:25.528Z,-2.85
2022-12-14T17:09:51.565Z,-2.84
2022-12-14T17:12:17.886Z,-2.89
2022-12-14T17:14:49.693Z,-2.90
2022-12-14T17:17:26.599Z,-2.85
2022-12-14T17:19:52.561Z,-2.79
2022-12-14T17:22:24.412Z,-2.75
2022-12-14T17:24:50.592Z,-2.92
2022-12-14T17:27:17.914Z,-2.85
2022-12-14T17:29:44.207Z,-2.77
2022-12-14T17:32:12.977Z,-2.89
2022-12-14T17:34:39.200Z,-2.76
2022-12-14T17:37:17.931Z,-2.82
2022-12-14T17:39:44.138Z,-2.77
2022-12-14T17:42:15.343Z,-2.69
2022-12-14T17:44:43.618Z,-2.74
2022-12-14T17:47:13.685Z,-2.75
2022-12-14T17:49:41.528Z,-2.79
2022-12-14T17:52:18.557Z,-2.79
2022-12-14T17:54:44.944Z,-2.69
2022-12-14T17:57:22.074Z,-2.67
2022-12-14T17:59:48.827Z,-2.70
2022-12-14T18:02:32.372Z,-2.61
2022-12-14T18:04:58.778Z,-2.65
2022-12-14T18:07:24.961Z,-2.61
2022-12-14T18:09:52.977Z,-2.70
2022-12-14T18:12:24.129Z,-2.66
2022-12-14T18:14:51.333Z,-2.68
2022-12-14T18:17:19.008Z,-2.59
2022-12-14T18:19:45.011Z,-2.64
2022-12-14T18:22:14.054Z,-2.69
2022-12-14T18:24:39.901Z,-2.78
2022-12-14T18:27:06.811Z,-2.69
2022-12-14T18:29:32.731Z,-2.75
2022-12-14T18:31:59.414Z,-2.77
2022-12-14T18:34:25.523Z,-2.74
2022-12-14T18:36:51.817Z,-2.66
2022-12-14T18:39:17.640Z,-2.64
2022-12-14T18:41:44.120Z,-2.69
2022-12-14T18:44:10.352Z,-2.73
2022-12-14T18:46:38.523Z,-2.74
2022-12-14T18:49:04.418Z,-2.51
2022-12-14T18:51:30.715Z,-2.85
2022-12-14T18:53:59.099Z,-2.89
2022-12-14T18:56:27.704Z,-3.08
2022-12-14T18:58:53.679Z,-3.28
2022-12-14T19:01:22.254Z,-3.20
2022-12-14T19:03:48.844Z,-2.99
2022-12-14T19:06:43.579Z,-2.92
2022-12-14T19:09:04.103Z,-2.98
2022-12-14T19:11:33.798Z,-3.41
2022-12-14T19:14:00.699Z,-3.21
2022-12-14T19:16:27.331Z,-3.28
2022-12-14T19:18:53.610Z,-3.26
2022-12-14T19:21:19.513Z,-3.69
2022-12-14T19:23:45.749Z,-3.31
2022-12-14T19:26:11.639Z,-3.49
2022-12-14T19:28:37.587Z,-3.62
2022-12-14T19:31:03.579Z,-3.69
2022-12-14T19:33:30.080Z,-3.51
2022-12-14T19:35:56.530Z,-3.68
2022-12-14T19:38:22.564Z,-3.66
2022-12-14T19:41:05.097Z,-3.57
2022-12-14T19:43:31.822Z,-3.67
2022-12-14T19:45:58.161Z,-3.62
2022-12-14T19:48:24.232Z,-3.52
2022-12-14T19:50:50.348Z,-3.57
2022-12-14T19:53:19.977Z,-3.52
2022-12-14T19:55:51.984Z,-3.48
2022-12-14T19:58:21.049Z,-3.35
2022-12-14T20:00:47.512Z,-3.47
2022-12-14T20:03:13.468Z,-3.62
2022-12-14T20:05:39.446Z,-3.68
2022-12-14T20:08:05.442Z,-3.67
2022-12-14T20:10:31.361Z,-3.55
2022-12-14T20:12:57.324Z,-3.42
2022-12-14T20:15:23.321Z,-3.42
2022-12-14T20:17:49.320Z,-3.42
2022-12-14T20:20:15.251Z,-3.35
2022-12-14T20:22:41.052Z,-3.42
2022-12-14T20:25:07.345Z,-3.28
2022-12-14T20:27:38.856Z,-3.54
2022-12-14T20:30:07.431Z,-3.90
2022-12-14T20:32:33.305Z,-3.67
2022-12-14T20:34:59.210Z,-3.76
2022-12-14T20:37:25.752Z,-3.92
2022-12-14T20:39:51.924Z,-3.73
2022-12-14T20:42:17.710Z,-3.69
2022-12-14T20:44:43.632Z,-3.76
2022-12-14T20:47:15.135Z,-3.57
2022-12-14T20:49:41.169Z,-3.37
2022-12-14T20:52:07.042Z,-3.64
2022-12-14T20:54:32.935Z,-3.76
2022-12-14T20:56:58.841Z,-3.99
2022-12-14T20:59:25.065Z,-3.90
2022-12-14T21:01:55.847Z,-3.76
2022-12-14T21:04:22.403Z,-3.93
2022-12-14T21:06:48.260Z,-3.97
2022-12-14T21:09:14.501Z,-3.85
2022-12-14T21:12:01.116Z,-4.07
2022-12-14T21:14:35.837Z,-4.14
2022-12-14T21:17:03.202Z,-4.30
2022-12-14T21:19:30.265Z,-4.03
2022-12-14T21:21:56.414Z,-4.17
2022-12-14T21:25:01.197Z,-4.31
2022-12-14T21:27:24.815Z,-4.32
2022-12-14T21:29:51.570Z,-4.60
2022-12-14T21:32:19.153Z,-4.61
2022-12-14T21:34:45.529Z,-4.50
2022-12-14T21:37:11.399Z,-4.60
2022-12-14T21:39:37.497Z,-4.76
2022-12-14T21:42:09.816Z,-4.64
2022-12-14T21:44:39.628Z,-4.84
2022-12-14T21:47:08.650Z,-4.77
2022-12-14T21:49:39.624Z,-4.82
2022-12-14T21:52:07.664Z,-4.64
2022-12-14T21:54:34.134Z,-4.62
2022-12-14T21:57:18.659Z,-4.62
2022-12-14T21:59:44.810Z,-4.60
2022-12-14T22:02:14.819Z,-4.52
2022-12-14T22:04:45.507Z,-4.48
2022-12-14T22:07:17.540Z,-4.33
2022-12-14T22:09:44.224Z,-4.50
2022-12-14T22:12:17.106Z,-4.44
2022-12-14T22:14:42.928Z,-4.36
2022-12-14T22:17:10.913Z,-4.33
2022-12-14T22:19:36.761Z,-4.34
2022-12-14T22:22:02.716Z,-4.22
2022-12-14T22:24:28.677Z,-4.23
2022-12-14T22:26:55.985Z,-4.16
2022-12-14T22:29:22.138Z,-4.13
2022-12-14T22:31:49.527Z,-4.21
2022-12-14T22:34:19.959Z,-4.12
2022-12-14T22:36:48.675Z,-4.08
2022-12-14T22:39:15.086Z,-4.11
2022-12-14T22:41:41.006Z,-4.09
2022-12-14T22:44:07.076Z,-4.12
2022-12-14T22:46:33.552Z,-4.16
2022-12-14T22:48:59.802Z,-4.16
2022-12-14T22:51:25.713Z,-4.34
2022-12-14T22:53:51.995Z,-4.32
2022-12-14T22:56:20.590Z,-4.28
2022-12-14T22:58:52.746Z,-4.33
2022-12-14T23:01:19.510Z,-4.23
2022-12-14T23:03:46.336Z,-4.73
2022-12-14T23:06:18.379Z,-4.44
2022-12-14T23:09:05.515Z,-4.29
2022-12-14T23:11:50.345Z,-4.33
2022-12-14T23:14:35.319Z,-4.26
2022-12-14T23:17:19.771Z,-4.55
2022-12-14T23:20:05.375Z,-4.45
2022-12-14T23:22:50.213Z,-4.47
2022-12-14T23:25:35.202Z,-4.75
2022-12-14T23:28:19.914Z,-4.53
2022-12-14T23:31:04.662Z,-4.46
2022-12-14T23:33:49.470Z,-4.73
2022-12-14T23:36:33.963Z,-4.62
2022-12-14T23:39:18.438Z,-4.55
2022-12-14T23:42:03.883Z,-4.63
2022-12-14T23:44:48.422Z,-4.55
2022-12-14T23:47:32.829Z,-4.43
2022-12-14T23:50:17.454Z,-4.56
2022-12-14T23:53:01.703Z,-4.56
2022-12-14T23:55:46.224Z,-4.63
2022-12-14T23:58:30.643Z,-4.63
